Time;durP1;ratioP1;P1;durP2;ratioP2;P2;SDS_P1;SDS_P2;PMS_P1;PMS_P2;Temp;Humidity;BMP_temperature;BMP_pressure;BME280_temperature;BME280_humidity;BME280_pressure;Samples;Min_cycle;Max_cycle;Signal;HPM_P1;HPM_P2
2023/11/26 00:44:44;;;;;;;2.80;1.33;;;-0.20;99.90;;;;;;5050935;27;20173;-64
2023/11/26 00:47:11;;;;;;;1.85;1.40;;;-0.10;99.90;;;;;;5026563;28;20037;-61
2023/11/26 00:49:38;;;;;;;1.00;0.80;;;-0.10;99.90;;;;;;5021469;28;20052;-60
2023/11/26 00:52:05;;;;;;;2.10;1.23;;;-0.10;99.90;;;;;;5022937;28;20388;-62
2023/11/26 00:54:32;;;;;;;3.25;1.10;;;-0.10;99.90;;;;;;5023660;28;20099;-62
2023/11/26 00:56:58;;;;;;;3.15;2.13;;;-0.10;99.90;;;;;;5008695;28;20100;-67
2023/11/26 00:59:25;;;;;;;3.00;1.23;;;-0.10;99.90;;;;;;5025705;28;20095;-62
2023/11/26 01:01:52;;;;;;;3.40;0.80;;;-0.10;99.90;;;;;;5008301;28;20107;-60
2023/11/26 01:04:19;;;;;;;4.72;1.58;;;-0.10;99.90;;;;;;5016170;28;20783;-61
2023/11/26 01:06:46;;;;;;;1.75;0.95;;;-0.10;99.90;;;;;;5024508;28;20546;-60
2023/11/26 01:09:13;;;;;;;1.55;0.77;;;-0.10;99.90;;;;;;5020552;28;20069;-62
2023/11/26 01:11:41;;;;;;;0.70;0.70;;;-0.10;99.90;;;;;;5017298;28;20056;-60
2023/11/26 01:14:08;;;;;;;4.07;1.25;;;0.00;99.90;;;;;;5021720;28;20104;-63
2023/11/26 01:16:35;;;;;;;1.23;0.85;;;0.00;99.90;;;;;;5023147;28;20045;-64
2023/11/26 01:19:02;;;;;;;1.17;0.73;;;-0.10;99.90;;;;;;5021175;28;20046;-65
2023/11/26 01:21:30;;;;;;;2.60;0.68;;;0.00;99.90;;;;;;5023294;28;20044;-60
2023/11/26 01:23:57;;;;;;;2.97;0.73;;;-0.10;99.90;;;;;;5007580;28;21153;-62
2023/11/26 01:26:24;;;;;;;1.98;1.77;;;0.00;99.90;;;;;;5019190;28;20424;-63
2023/11/26 01:28:51;;;;;;;4.25;0.85;;;-0.10;99.90;;;;;;5001360;28;20107;-62
2023/11/26 01:31:19;;;;;;;0.98;0.55;;;-0.10;99.90;;;;;;5038823;28;20061;-60
2023/11/26 01:33:47;;;;;;;2.22;0.93;;;-0.10;99.90;;;;;;5040267;28;20115;-62
2023/11/26 01:36:14;;;;;;;2.50;0.70;;;-0.10;99.90;;;;;;5024309;28;20407;-60
2023/11/26 01:38:41;;;;;;;1.85;0.55;;;-0.10;99.90;;;;;;5021720;28;20497;-61
2023/11/26 01:41:08;;;;;;;1.33;0.50;;;-0.10;99.90;;;;;;5021748;28;20052;-61
2023/11/26 01:43:35;;;;;;;4.25;1.00;;;0.00;99.90;;;;;;5033307;28;20070;-60
2023/11/26 01:46:12;;;;;;;1.73;0.57;;;0.00;99.90;;;;;;5047945;28;20065;-61
2023/11/26 01:48:40;;;;;;;2.67;1.13;;;0.00;99.90;;;;;;5042474;28;20684;-62
2023/11/26 01:51:12;;;;;;;2.25;0.65;;;0.00;99.90;;;;;;5058488;28;20041;-61
2023/11/26 01:53:44;;;;;;;0.88;0.80;;;0.00;99.90;;;;;;5017075;28;20130;-64
2023/11/26 03:03:57;;;;;;;3.70;0.70;;;0.40;99.90;;;;;;5074208;27;20055;-67
2023/11/26 03:06:26;;;;;;;1.05;0.68;;;0.50;99.90;;;;;;5026899;28;20450;-62
2023/11/26 03:09:09;;;;;;;5.20;0.95;;;0.50;99.90;;;;;;5053217;28;20045;-65
2023/11/26 03:14:22;;;;;;;6.13;0.68;;;0.50;99.90;;;;;;5050921;28;20057;-59
2023/11/26 03:16:49;;;;;;;2.22;0.60;;;0.50;99.90;;;;;;5033815;28;20045;-70
2023/11/26 03:19:17;;;;;;;2.90;0.73;;;0.60;99.90;;;;;;5045993;28;20055;-61
2023/11/26 03:21:45;;;;;;;4.93;0.77;;;0.60;99.90;;;;;;5058914;28;20041;-63
2023/11/26 03:24:15;;;;;;;3.30;0.95;;;0.60;99.90;;;;;;5047111;28;20040;-60
2023/11/26 03:26:42;;;;;;;6.15;2.70;;;0.60;99.90;;;;;;5055712;28;20466;-60
2023/11/26 03:29:09;;;;;;;2.47;1.20;;;0.60;99.90;;;;;;5050484;28;20458;-64
2023/11/26 03:31:36;;;;;;;7.40;0.90;;;0.60;99.90;;;;;;5029724;28;20465;-62
2023/11/26 03:34:08;;;;;;;1.40;0.70;;;0.60;99.90;;;;;;5053152;28;20037;-60
2023/11/26 03:36:38;;;;;;;5.10;1.10;;;0.60;99.90;;;;;;5055303;28;20041;-70
2023/11/26 03:39:07;;;;;;;1.30;0.70;;;0.60;99.90;;;;;;5033087;28;20084;-63
2023/11/26 03:41:34;;;;;;;4.10;1.50;;;0.60;99.90;;;;;;5056114;28;20078;-61
2023/11/26 03:44:02;;;;;;;2.65;1.17;;;0.60;99.90;;;;;;5049952;28;20661;-67
2023/11/26 03:46:32;;;;;;;4.13;0.82;;;0.70;99.90;;;;;;5058959;28;20044;-65
2023/11/26 03:48:59;;;;;;;2.33;1.00;;;0.60;99.90;;;;;;5059095;28;20120;-63
2023/11/26 03:51:28;;;;;;;0.90;0.50;;;0.70;99.90;;;;;;5053791;28;20053;-64
2023/11/26 03:53:55;;;;;;;2.33;0.50;;;0.70;99.90;;;;;;5056862;28;20090;-70
2023/11/26 03:56:22;;;;;;;6.35;1.80;;;0.70;99.90;;;;;;5034614;28;20149;-64
2023/11/26 03:58:49;;;;;;;1.00;0.68;;;0.70;99.90;;;;;;5043176;28;20045;-64
2023/11/26 04:01:16;;;;;;;1.05;0.90;;;0.70;99.90;;;;;;5036914;28;20085;-71
2023/11/26 04:03:43;;;;;;;2.38;1.20;;;0.70;99.90;;;;;;5034996;28;20057;-61
2023/11/26 04:06:10;;;;;;;1.48;0.55;;;0.70;99.90;;;;;;5056583;28;20044;-63
2023/11/26 04:08:37;;;;;;;2.63;1.13;;;0.70;99.90;;;;;;5038840;28;20128;-67
2023/11/26 04:11:04;;;;;;;2.58;0.75;;;0.70;99.90;;;;;;5052512;28;20063;-67
2023/11/26 04:13:31;;;;;;;3.17;0.40;;;0.70;99.90;;;;;;5056927;28;20055;-62
2023/11/26 04:15:58;;;;;;;2.20;0.50;;;0.60;99.90;;;;;;5051706;28;20040;-62
2023/11/26 04:18:27;;;;;;;1.73;0.55;;;0.70;99.90;;;;;;5049997;28;20048;-61
2023/11/26 04:20:55;;;;;;;3.00;0.55;;;0.70;99.90;;;;;;5056142;28;20037;-63
2023/11/26 04:23:22;;;;;;;4.05;0.63;;;0.70;99.90;;;;;;5050368;28;20052;-61
2023/11/26 04:25:50;;;;;;;1.25;0.75;;;0.70;99.90;;;;;;5042050;28;20403;-62
2023/11/26 04:28:17;;;;;;;1.75;1.30;;;0.70;99.90;;;;;;5057471;28;20048;-61
2023/11/26 04:30:44;;;;;;;1.98;0.63;;;0.70;99.90;;;;;;5046797;28;20230;-65
2023/11/26 04:33:12;;;;;;;2.40;0.50;;;0.70;99.90;;;;;;5054483;28;20120;-62
2023/11/26 04:35:39;;;;;;;3.08;0.82;;;0.70;99.90;;;;;;5051644;28;20048;-63
2023/11/26 04:38:07;;;;;;;5.10;1.08;;;0.70;99.90;;;;;;5054035;28;20128;-62
2023/11/26 04:40:34;;;;;;;1.67;0.85;;;0.70;99.90;;;;;;5050083;28;20069;-64
2023/11/26 04:43:01;;;;;;;1.48;0.60;;;0.70;99.90;;;;;;5051006;28;20049;-67
2023/11/26 04:45:28;;;;;;;4.38;0.57;;;0.70;99.90;;;;;;5054374;28;20055;-62
2023/11/26 04:47:55;;;;;;;0.70;0.47;;;0.70;99.90;;;;;;5052552;28;20079;-64
2023/11/26 04:50:22;;;;;;;1.98;0.70;;;0.70;99.90;;;;;;5057247;28;20053;-61
2023/11/26 04:52:50;;;;;;;1.15;0.65;;;0.70;99.90;;;;;;5050939;28;20048;-64
2023/11/26 04:55:19;;;;;;;1.75;0.80;;;0.70;99.90;;;;;;5054196;28;20127;-63
2023/11/26 04:57:47;;;;;;;1.10;0.60;;;0.70;99.90;;;;;;5056196;28;20045;-64
2023/11/26 05:00:15;;;;;;;2.67;2.33;;;0.70;99.90;;;;;;5057074;28;20060;-62
2023/11/26 05:02:43;;;;;;;2.70;0.70;;;0.80;99.90;;;;;;5056977;28;20048;-70
2023/11/26 05:05:10;;;;;;;2.35;0.75;;;0.70;99.90;;;;;;5056289;28;20376;-65
2023/11/26 05:07:37;;;;;;;1.63;0.40;;;0.80;99.90;;;;;;5054213;28;20037;-65
2023/11/26 05:10:08;;;;;;;3.30;0.63;;;0.80;99.90;;;;;;5056441;28;20037;-63
2023/11/26 05:12:35;;;;;;;0.63;0.47;;;0.80;99.90;;;;;;5051511;28;20494;-62
2023/11/26 05:15:04;;;;;;;1.73;0.70;;;0.80;99.90;;;;;;5053162;28;20094;-62
2023/11/26 05:17:31;;;;;;;2.38;0.52;;;0.90;99.90;;;;;;5053610;28;20489;-73
2023/11/26 05:19:58;;;;;;;1.58;0.60;;;0.90;99.90;;;;;;5053537;28;20040;-68
2023/11/26 05:22:25;;;;;;;1.70;0.73;;;0.90;99.90;;;;;;5057540;28;20045;-65
2023/11/26 05:24:52;;;;;;;0.68;0.47;;;0.90;99.90;;;;;;5050236;28;20033;-62
2023/11/26 05:27:19;;;;;;;2.17;0.38;;;0.90;99.90;;;;;;5056657;28;20040;-62
2023/11/26 05:29:45;;;;;;;4.93;0.65;;;0.90;99.90;;;;;;5052256;28;20037;-61
2023/11/26 05:32:12;;;;;;;3.80;0.80;;;1.00;99.90;;;;;;5054185;28;20063;-61
2023/11/26 05:34:39;;;;;;;1.35;0.30;;;0.90;99.90;;;;;;5056115;28;20398;-67
2023/11/26 05:37:06;;;;;;;1.67;1.08;;;0.90;99.90;;;;;;5059630;28;20430;-64
2023/11/26 05:39:33;;;;;;;0.98;0.55;;;1.00;99.90;;;;;;5054205;28;20494;-64
2023/11/26 05:42:00;;;;;;;1.13;0.52;;;1.00;99.90;;;;;;5053044;28;20492;-69
2023/11/26 05:44:27;;;;;;;4.05;0.35;;;0.90;99.90;;;;;;5052706;28;20415;-61
2023/11/26 05:46:54;;;;;;;1.02;0.40;;;1.00;99.90;;;;;;5051163;28;20040;-65
2023/11/26 05:49:21;;;;;;;2.70;0.47;;;1.00;99.90;;;;;;5044752;28;20128;-64
2023/11/26 05:51:48;;;;;;;1.08;0.40;;;1.00;99.90;;;;;;5053862;28;20087;-61
2023/11/26 05:54:18;;;;;;;2.15;0.43;;;1.00;99.90;;;;;;5048837;28;20110;-65
2023/11/26 05:56:45;;;;;;;1.17;0.50;;;1.00;99.90;;;;;;5050867;28;20044;-61
2023/11/26 05:59:11;;;;;;;1.38;0.40;;;1.00;99.90;;;;;;5045442;28;20087;-65
2023/11/26 06:01:39;;;;;;;2.97;0.77;;;1.00;99.90;;;;;;5039083;28;20146;-65
2023/11/26 06:04:06;;;;;;;3.45;1.40;;;1.00;99.90;;;;;;5052984;28;20083;-61
2023/11/26 06:06:33;;;;;;;3.00;0.52;;;1.00;99.90;;;;;;5052213;28;20044;-64
2023/11/26 06:09:00;;;;;;;2.13;0.80;;;1.00;99.90;;;;;;5057388;28;20037;-63
2023/11/26 06:11:27;;;;;;;1.23;0.60;;;1.00;99.90;;;;;;5054808;28;20116;-61
2023/11/26 06:13:54;;;;;;;5.95;0.95;;;1.00;99.90;;;;;;5054210;28;20037;-66
2023/11/26 06:16:21;;;;;;;2.13;0.55;;;0.90;99.90;;;;;;5057388;28;20103;-64
2023/11/26 06:18:48;;;;;;;2.38;0.60;;;0.90;99.90;;;;;;5053861;28;20037;-61
2023/11/26 06:21:15;;;;;;;2.97;0.52;;;0.90;99.90;;;;;;5052685;28;20127;-64
2023/11/26 06:23:42;;;;;;;2.38;0.60;;;1.00;99.90;;;;;;5055523;28;20036;-65
2023/11/26 06:26:09;;;;;;;3.95;0.43;;;1.00;99.90;;;;;;5049358;28;20044;-61
2023/11/26 06:28:37;;;;;;;5.45;0.60;;;0.90;99.90;;;;;;5049918;28;20128;-61
2023/11/26 06:31:04;;;;;;;1.40;0.88;;;0.90;99.90;;;;;;5047904;28;20071;-63
2023/11/26 06:33:31;;;;;;;5.53;1.02;;;1.00;99.90;;;;;;5048470;28;20072;-61
2023/11/26 06:35:58;;;;;;;1.90;0.40;;;1.00;99.90;;;;;;5045410;28;20037;-68
2023/11/26 06:38:25;;;;;;;3.47;0.60;;;1.00;99.90;;;;;;5054016;28;20064;-62
2023/11/26 06:40:52;;;;;;;1.08;0.80;;;1.10;99.90;;;;;;5047245;28;20052;-65
2023/11/26 06:43:19;;;;;;;0.90;0.47;;;1.00;99.90;;;;;;5054298;28;20137;-62
2023/11/26 06:45:45;;;;;;;1.20;0.68;;;1.00;99.90;;;;;;5050989;28;20142;-61
2023/11/26 06:48:12;;;;;;;3.25;0.88;;;1.00;99.90;;;;;;5052861;28;20055;-61
2023/11/26 06:50:39;;;;;;;0.60;0.40;;;1.00;99.90;;;;;;5049098;28;20052;-61
2023/11/26 06:53:07;;;;;;;0.60;0.40;;;1.00;99.90;;;;;;5053186;28;20045;-64
2023/11/26 06:55:33;;;;;;;2.17;0.63;;;1.10;99.90;;;;;;5054048;28;20130;-61
2023/11/26 06:58:00;;;;;;;0.73;0.68;;;1.10;99.90;;;;;;5049504;28;20033;-65
2023/11/26 07:00:31;;;;;;;3.38;0.50;;;1.10;99.90;;;;;;5055295;28;20467;-63
2023/11/26 07:02:59;;;;;;;1.65;0.90;;;1.10;99.90;;;;;;5056991;28;20493;-62
2023/11/26 07:05:25;;;;;;;4.57;1.00;;;1.10;99.90;;;;;;5049250;28;20083;-63
2023/11/26 07:07:52;;;;;;;1.10;0.95;;;1.10;99.90;;;;;;5051001;28;20044;-67
2023/11/26 07:10:19;;;;;;;1.05;0.60;;;1.10;99.90;;;;;;5049591;28;20057;-61
2023/11/26 07:12:47;;;;;;;1.05;0.80;;;1.20;99.90;;;;;;5050716;28;20094;-62
2023/11/26 07:15:14;;;;;;;1.30;0.47;;;1.10;99.90;;;;;;5056429;28;20048;-64
2023/11/26 07:17:41;;;;;;;1.42;0.40;;;1.20;99.90;;;;;;5045302;28;20052;-61
2023/11/26 07:20:09;;;;;;;0.68;0.47;;;1.20;99.90;;;;;;5052357;28;20501;-61
2023/11/26 07:22:37;;;;;;;2.65;1.05;;;1.20;99.90;;;;;;5049360;28;20041;-62
2023/11/26 07:25:04;;;;;;;1.95;0.40;;;1.20;99.90;;;;;;5055786;28;20086;-61
2023/11/26 07:27:31;;;;;;;4.43;1.23;;;1.20;99.90;;;;;;5050026;28;20076;-69
2023/11/26 07:29:58;;;;;;;0.82;0.73;;;1.30;99.90;;;;;;5052417;28;20064;-69
2023/11/26 07:32:26;;;;;;;1.27;0.55;;;1.30;99.90;;;;;;5050455;28;20544;-62
2023/11/26 07:34:53;;;;;;;5.60;1.13;;;1.30;99.90;;;;;;5053282;28;20128;-62
2023/11/26 07:37:21;;;;;;;4.70;0.70;;;1.30;99.90;;;;;;5049807;28;20138;-61
2023/11/26 07:39:48;;;;;;;1.48;0.57;;;1.30;99.90;;;;;;5053869;28;20064;-60
2023/11/26 07:42:15;;;;;;;2.63;0.68;;;1.30;99.90;;;;;;5045416;28;20048;-62
2023/11/26 07:44:41;;;;;;;2.92;0.50;;;1.30;99.90;;;;;;5038745;28;20073;-62
2023/11/26 07:47:08;;;;;;;1.88;1.20;;;1.30;99.90;;;;;;5046299;28;20134;-65
2023/11/26 07:49:36;;;;;;;3.58;1.45;;;1.30;99.90;;;;;;5049016;28;20102;-64
2023/11/26 07:52:03;;;;;;;4.50;0.95;;;1.30;99.90;;;;;;5050149;28;20545;-64
2023/11/26 07:54:30;;;;;;;5.80;0.80;;;1.30;99.90;;;;;;5052114;28;20099;-62
2023/11/26 07:56:58;;;;;;;0.77;0.45;;;1.40;99.90;;;;;;5045276;28;21044;-64
2023/11/26 07:59:25;;;;;;;3.40;1.30;;;1.40;99.90;;;;;;5045126;28;20067;-65
2023/11/26 08:01:52;;;;;;;1.95;0.68;;;1.40;99.90;;;;;;5056046;28;20097;-62
2023/11/26 08:04:19;;;;;;;2.58;1.08;;;1.50;99.90;;;;;;5051285;28;20053;-63
2023/11/26 08:06:47;;;;;;;2.30;0.90;;;1.50;99.90;;;;;;5047178;28;20047;-62
2023/11/26 08:09:15;;;;;;;1.73;0.70;;;1.50;99.90;;;;;;5053996;28;20148;-64
2023/11/26 08:11:46;;;;;;;2.75;0.60;;;1.50;99.90;;;;;;5048355;28;20045;-62
2023/11/26 08:14:14;;;;;;;1.88;0.80;;;1.50;99.90;;;;;;5056734;28;20124;-64
2023/11/26 08:16:42;;;;;;;2.75;0.93;;;1.50;99.90;;;;;;5051192;28;20044;-62
2023/11/26 08:19:13;;;;;;;1.48;0.73;;;1.60;99.90;;;;;;5047932;28;20551;-71
2023/11/26 08:21:40;;;;;;;0.98;0.95;;;1.60;99.90;;;;;;5050495;28;20119;-62
2023/11/26 08:24:13;;;;;;;1.75;1.33;;;1.60;99.90;;;;;;5054209;28;20040;-65
2023/11/26 08:26:41;;;;;;;3.72;1.30;;;1.60;99.90;;;;;;5052605;28;20045;-67
2023/11/26 08:29:09;;;;;;;2.45;0.90;;;1.60;99.90;;;;;;5052049;28;20103;-64
2023/11/26 08:31:39;;;;;;;3.95;0.90;;;1.60;99.90;;;;;;5057439;28;20048;-65
2023/11/26 08:34:07;;;;;;;2.53;0.85;;;1.60;99.90;;;;;;5050931;28;20048;-67
2023/11/26 08:36:40;;;;;;;2.58;1.08;;;1.60;99.90;;;;;;5050923;28;20041;-66
2023/11/26 08:39:08;;;;;;;3.47;0.95;;;1.50;99.90;;;;;;5049882;28;20033;-62
2023/11/26 08:41:36;;;;;;;1.20;1.10;;;1.60;99.90;;;;;;5056388;28;20079;-65
2023/11/26 08:44:03;;;;;;;1.65;0.95;;;1.60;99.90;;;;;;5055914;28;20460;-63
2023/11/26 08:46:34;;;;;;;2.13;1.08;;;1.60;99.90;;;;;;5054793;28;20563;-65
2023/11/26 08:49:01;;;;;;;;;;;1.70;99.90;;;;;;5034276;28;20115;-67
2023/11/26 08:51:32;;;;;;;1.23;1.10;;;1.70;99.90;;;;;;5049898;28;19956;-62
2023/11/26 08:53:59;;;;;;;1.50;0.80;;;1.80;99.90;;;;;;5055680;28;20043;-64
2023/11/26 08:56:26;;;;;;;0.90;0.70;;;1.80;99.90;;;;;;5047455;28;20049;-63
2023/11/26 08:58:53;;;;;;;3.30;2.40;;;1.80;99.90;;;;;;5051488;28;20096;-62
2023/11/26 09:01:20;;;;;;;3.05;1.02;;;1.80;99.90;;;;;;5053231;28;20063;-62
2023/11/26 09:03:47;;;;;;;1.73;1.30;;;1.90;99.90;;;;;;5051888;28;20052;-63
2023/11/26 09:06:14;;;;;;;0.82;0.50;;;1.80;99.90;;;;;;5053031;28;20041;-62
2023/11/26 09:08:41;;;;;;;1.52;0.80;;;1.80;99.90;;;;;;5055645;28;20042;-65
2023/11/26 09:11:09;;;;;;;3.70;1.33;;;1.80;99.90;;;;;;5054144;28;20055;-63
2023/11/26 09:13:36;;;;;;;2.25;0.70;;;1.80;99.90;;;;;;5050394;28;20045;-64
2023/11/26 09:16:06;;;;;;;1.63;1.17;;;1.90;99.90;;;;;;5054009;28;20094;-74
2023/11/26 09:18:36;;;;;;;2.50;1.23;;;1.90;99.90;;;;;;5055512;28;20068;-62
2023/11/26 09:21:06;;;;;;;1.60;1.42;;;1.90;99.90;;;;;;5048094;28;20049;-62
2023/11/26 09:23:34;;;;;;;1.27;1.13;;;1.90;99.90;;;;;;5046518;28;20099;-67
2023/11/26 09:26:01;;;;;;;2.58;0.77;;;1.90;99.90;;;;;;5052782;28;20053;-65
2023/11/26 09:28:30;;;;;;;2.67;1.02;;;1.80;99.90;;;;;;5050571;28;20103;-63
2023/11/26 09:30:56;;;;;;;1.70;1.27;;;1.80;99.90;;;;;;5057326;28;20055;-69
2023/11/26 09:33:24;;;;;;;1.75;0.93;;;1.80;99.90;;;;;;5048527;28;20040;-64
2023/11/26 09:35:51;;;;;;;2.90;1.15;;;1.70;99.90;;;;;;5047342;28;20064;-64
2023/11/26 09:38:19;;;;;;;1.42;0.80;;;1.70;99.90;;;;;;5051944;28;20057;-66
2023/11/26 09:40:46;;;;;;;1.42;0.88;;;1.70;99.90;;;;;;5033388;28;20423;-62
2023/11/26 09:43:14;;;;;;;3.35;1.05;;;1.70;99.90;;;;;;5055839;28;20518;-62
2023/11/26 09:45:44;;;;;;;2.17;1.10;;;1.70;99.90;;;;;;5053057;28;20041;-63
2023/11/26 09:48:11;;;;;;;1.38;1.23;;;1.70;99.90;;;;;;5043247;28;20047;-62
2023/11/26 09:50:39;;;;;;;3.53;0.95;;;1.70;99.90;;;;;;5049762;28;20048;-66
2023/11/26 09:53:10;;;;;;;2.13;0.88;;;1.70;99.90;;;;;;5048064;28;20045;-62
2023/11/26 09:55:39;;;;;;;1.95;1.05;;;1.70;99.90;;;;;;5049210;28;20490;-67
2023/11/26 09:58:06;;;;;;;3.50;1.13;;;1.70;99.90;;;;;;5047473;28;20049;-63
2023/11/26 10:00:33;;;;;;;2.00;1.25;;;1.70;99.90;;;;;;5051324;28;20197;-62
2023/11/26 10:03:02;;;;;;;1.33;0.90;;;1.80;99.90;;;;;;5050603;28;20056;-72
2023/11/26 10:05:32;;;;;;;1.83;1.10;;;1.80;99.90;;;;;;5048592;28;20052;-66
2023/11/26 10:08:00;;;;;;;1.80;1.48;;;1.80;99.90;;;;;;5053134;28;20061;-71
2023/11/26 10:10:28;;;;;;;1.15;1.02;;;1.80;99.90;;;;;;5044637;28;20041;-67
2023/11/26 10:12:56;;;;;;;1.95;1.55;;;1.90;99.90;;;;;;5050045;28;20069;-69
2023/11/26 10:15:31;;;;;;;1.77;1.65;;;1.90;99.90;;;;;;5046359;28;20483;-65
2023/11/26 10:18:02;;;;;;;2.13;1.20;;;1.90;99.90;;;;;;5052770;28;20048;-68
2023/11/26 10:20:31;;;;;;;3.25;1.13;;;1.90;99.90;;;;;;5047690;28;20041;-67
2023/11/26 10:22:58;;;;;;;4.70;1.38;;;1.90;99.90;;;;;;5051062;28;20131;-76
2023/11/26 10:25:25;;;;;;;4.95;1.35;;;1.90;99.90;;;;;;5054040;28;20049;-63
2023/11/26 10:27:55;;;;;;;3.10;0.80;;;1.90;99.90;;;;;;5045395;28;20130;-63
2023/11/26 10:30:32;;;;;;;3.75;1.23;;;1.90;99.90;;;;;;5048554;28;20128;-63
2023/11/26 10:33:08;;;;;;;2.30;2.10;;;1.80;99.90;;;;;;5046133;28;20069;-70
2023/11/26 10:35:49;;;;;;;1.10;0.95;;;1.80;99.90;;;;;;5051431;28;20052;-63
2023/11/26 10:38:21;;;;;;;1.52;1.40;;;1.80;99.90;;;;;;5050253;28;20052;-67
2023/11/26 10:40:48;;;;;;;1.20;1.08;;;1.80;99.90;;;;;;5048845;28;20056;-63
2023/11/26 10:43:17;;;;;;;2.63;1.35;;;1.80;99.90;;;;;;5052030;28;20429;-68
2023/11/26 10:45:43;;;;;;;3.92;1.40;;;1.80;99.90;;;;;;5049189;28;20098;-64
2023/11/26 10:48:15;;;;;;;1.42;0.75;;;1.80;99.90;;;;;;5048345;28;20521;-67
2023/11/26 10:51:05;;;;;;;2.35;0.82;;;1.80;99.90;;;;;;5050530;28;20124;-65
2023/11/26 10:53:52;;;;;;;1.10;1.00;;;1.80;99.90;;;;;;5045526;28;20053;-64
2023/11/26 10:56:26;;;;;;;2.25;0.90;;;1.80;99.90;;;;;;5056640;28;20056;-63
2023/11/26 10:58:58;;;;;;;1.48;1.13;;;1.80;99.90;;;;;;5050823;28;20103;-65
2023/11/26 11:01:25;;;;;;;3.70;1.73;;;1.80;99.90;;;;;;5055174;28;20542;-65
2023/11/26 11:03:54;;;;;;;2.03;1.10;;;1.80;99.90;;;;;;5054057;28;20072;-63
2023/11/26 11:06:23;;;;;;;2.70;1.00;;;1.80;99.90;;;;;;5048406;28;20033;-65
2023/11/26 11:08:51;;;;;;;1.65;1.23;;;1.90;99.90;;;;;;5047286;28;20048;-72
2023/11/26 11:11:40;;;;;;;3.97;1.48;;;1.90;99.90;;;;;;5041784;28;20100;-63
2023/11/26 11:14:08;;;;;;;1.80;1.25;;;1.90;99.90;;;;;;5054272;28;20068;-64
2023/11/26 11:16:35;;;;;;;2.05;1.83;;;1.90;99.90;;;;;;5031853;28;20560;-66
2023/11/26 11:19:02;;;;;;;1.33;1.23;;;1.90;99.90;;;;;;5049133;28;20044;-65
2023/11/26 11:21:30;;;;;;;7.25;1.70;;;1.80;99.90;;;;;;5049609;28;20094;-64
2023/11/26 11:23:57;;;;;;;0.90;0.73;;;1.80;99.90;;;;;;5051480;28;20048;-69
2023/11/26 11:26:25;;;;;;;2.25;1.58;;;1.80;99.90;;;;;;5046401;28;20055;-66
2023/11/26 11:28:58;;;;;;;3.38;1.48;;;1.80;99.90;;;;;;5032892;28;20368;-63
2023/11/26 11:32:02;;;;;;;0.98;0.93;;;1.80;99.90;;;;;;5049935;28;20102;-62
2023/11/26 11:34:30;;;;;;;1.40;0.93;;;1.80;99.90;;;;;;4992927;28;20061;-62
2023/11/26 11:36:59;;;;;;;4.50;1.30;;;1.80;99.90;;;;;;5038959;28;20122;-63
2023/11/26 11:39:46;;;;;;;3.88;1.17;;;1.80;99.90;;;;;;5048490;28;20127;-64
2023/11/26 11:42:17;;;;;;;3.10;0.80;;;1.80;99.90;;;;;;5045492;28;20041;-68
2023/11/26 11:44:44;;;;;;;1.58;1.33;;;1.80;99.90;;;;;;5043839;28;20041;-62
2023/11/26 11:47:32;;;;;;;2.90;1.45;;;1.70;99.90;;;;;;5053504;28;20203;-62
2023/11/26 11:49:59;;;;;;;2.67;1.15;;;1.80;99.90;;;;;;5047232;28;20119;-62
2023/11/26 11:52:26;;;;;;;1.73;1.35;;;1.80;99.90;;;;;;5050698;28;20080;-62
2023/11/26 11:54:58;;;;;;;2.13;1.00;;;1.80;99.90;;;;;;5047266;28;20044;-62
2023/11/26 11:57:27;;;;;;;1.00;0.85;;;1.80;99.90;;;;;;5048654;28;20045;-62
2023/11/26 11:59:55;;;;;;;1.35;0.98;;;1.80;99.90;;;;;;5047120;28;20049;-64
2023/11/26 12:02:25;;;;;;;1.33;1.23;;;1.70;99.90;;;;;;5051262;28;20057;-68
2023/11/26 12:04:52;;;;;;;1.25;0.52;;;1.70;99.90;;;;;;5029521;28;20212;-73
2023/11/26 12:07:28;;;;;;;2.45;1.50;;;1.70;99.90;;;;;;5046830;28;20040;-61
2023/11/26 12:09:56;;;;;;;3.88;1.50;;;1.70;99.90;;;;;;5053669;28;20083;-61
2023/11/26 12:12:22;;;;;;;3.10;1.17;;;1.60;99.90;;;;;;5055773;28;20069;-64
2023/11/26 12:14:49;;;;;;;1.55;1.38;;;1.70;99.90;;;;;;5060021;28;20044;-69
2023/11/26 12:17:17;;;;;;;1.92;1.75;;;1.60;99.90;;;;;;5057268;28;20106;-66
2023/11/26 12:19:44;;;;;;;1.10;1.00;;;1.50;99.90;;;;;;5052861;28;20037;-63
2023/11/26 12:22:12;;;;;;;1.90;1.80;;;1.50;99.90;;;;;;5058140;28;20040;-67
2023/11/26 12:24:39;;;;;;;1.10;0.80;;;1.50;99.90;;;;;;5053078;28;20052;-62
2023/11/26 12:27:19;;;;;;;1.15;0.85;;;1.50;99.90;;;;;;5051677;28;20044;-65
2023/11/26 12:29:46;;;;;;;2.17;1.48;;;1.50;99.90;;;;;;5047746;28;20068;-62
2023/11/26 12:32:15;;;;;;;1.75;1.35;;;1.50;99.90;;;;;;5055848;28;20681;-75
2023/11/26 12:34:42;;;;;;;1.73;1.13;;;1.40;99.90;;;;;;5053174;28;20052;-62
2023/11/26 12:37:10;;;;;;;2.10;1.73;;;1.40;99.90;;;;;;5054272;28;20044;-67
2023/11/26 12:39:40;;;;;;;1.70;1.30;;;1.40;99.90;;;;;;5052847;28;20118;-62
2023/11/26 12:42:07;;;;;;;1.42;1.23;;;1.40;99.90;;;;;;5048427;28;20045;-67
2023/11/26 12:44:34;;;;;;;2.13;1.38;;;1.40;99.90;;;;;;5054185;28;20068;-66
2023/11/26 12:47:11;;;;;;;2.42;1.17;;;1.40;99.90;;;;;;5053529;28;20044;-68
2023/11/26 12:49:39;;;;;;;2.47;1.55;;;1.40;99.90;;;;;;5052470;28;20135;-62
2023/11/26 12:52:08;;;;;;;1.60;1.30;;;1.40;99.90;;;;;;5050566;28;20041;-64
2023/11/26 12:54:36;;;;;;;1.35;1.25;;;1.40;99.90;;;;;;5050349;28;20537;-65
2023/11/26 12:57:04;;;;;;;3.25;1.92;;;1.50;99.90;;;;;;5051978;28;20056;-68
2023/11/26 12:59:47;;;;;;;2.75;1.83;;;1.50;99.90;;;;;;5053147;28;20048;-64
2023/11/26 13:02:15;;;;;;;2.22;1.63;;;1.50;99.90;;;;;;5048720;28;20037;-66
2023/11/26 13:04:43;;;;;;;6.05;2.55;;;1.50;99.90;;;;;;5050966;28;20048;-62
2023/11/26 13:07:09;;;;;;;2.97;2.17;;;1.50;99.90;;;;;;5056027;28;20047;-62
2023/11/26 13:09:53;;;;;;;2.03;1.85;;;1.50;99.90;;;;;;5054393;28;20044;-63
2023/11/26 13:12:21;;;;;;;1.85;1.60;;;1.40;99.90;;;;;;5056531;28;20048;-62
2023/11/26 13:14:48;;;;;;;2.75;1.98;;;1.40;99.90;;;;;;5051222;28;20094;-65
2023/11/26 13:17:18;;;;;;;2.78;1.65;;;1.40;99.90;;;;;;5054096;28;20054;-65
2023/11/26 13:19:47;;;;;;;1.92;1.45;;;1.50;99.90;;;;;;5046836;28;20124;-62
2023/11/26 13:22:14;;;;;;;2.00;1.85;;;1.50;99.90;;;;;;5050576;28;20053;-64
2023/11/26 13:24:41;;;;;;;2.38;2.00;;;1.50;99.90;;;;;;5050327;28;20052;-61
2023/11/26 13:27:08;;;;;;;2.25;2.05;;;1.50;99.90;;;;;;5050746;28;20045;-68
2023/11/26 13:29:35;;;;;;;2.33;2.13;;;1.60;99.90;;;;;;5049945;28;20061;-64
2023/11/26 13:32:02;;;;;;;2.15;1.52;;;1.50;99.90;;;;;;5054410;28;20048;-66
2023/11/26 13:34:29;;;;;;;5.78;2.92;;;1.50;99.90;;;;;;5049869;28;20149;-67
2023/11/26 13:36:56;;;;;;;4.18;2.33;;;1.50;99.90;;;;;;5052542;28;20431;-64
2023/11/26 13:39:23;;;;;;;2.22;2.00;;;1.60;99.90;;;;;;5057814;28;20658;-64
2023/11/26 13:41:50;;;;;;;4.38;2.60;;;1.60;99.90;;;;;;5051307;28;20047;-61
2023/11/26 13:44:17;;;;;;;2.65;2.25;;;1.50;99.90;;;;;;5060378;28;20407;-62
2023/11/26 13:46:44;;;;;;;3.58;2.28;;;1.50;99.90;;;;;;5046613;28;20037;-62
2023/11/26 13:49:11;;;;;;;3.22;2.28;;;1.50;99.90;;;;;;5053031;28;20395;-62
2023/11/26 13:51:39;;;;;;;2.20;1.80;;;1.50;99.90;;;;;;5012919;28;20029;-75
2023/11/26 13:54:06;;;;;;;4.80;2.50;;;1.50;99.90;;;;;;5029810;28;20033;-65
2023/11/26 13:56:33;;;;;;;4.57;2.13;;;1.50;99.90;;;;;;5046596;28;20045;-64
2023/11/26 13:59:00;;;;;;;2.60;2.38;;;1.50;99.90;;;;;;5049447;28;20709;-63
2023/11/26 14:01:27;;;;;;;2.60;2.15;;;1.50;99.90;;;;;;5049057;28;20052;-62
2023/11/26 14:03:54;;;;;;;2.28;1.73;;;1.50;99.90;;;;;;5053137;28;20662;-65
2023/11/26 14:06:26;;;;;;;3.92;2.58;;;1.50;99.90;;;;;;5049752;28;20047;-68
2023/11/26 14:08:53;;;;;;;2.28;2.08;;;1.50;99.90;;;;;;5055173;28;20050;-63
2023/11/26 14:11:21;;;;;;;5.00;3.00;;;1.50;99.90;;;;;;5049420;28;20112;-64
2023/11/26 14:13:48;;;;;;;2.17;1.90;;;1.50;99.90;;;;;;5050293;28;20052;-64
2023/11/26 14:16:16;;;;;;;2.72;1.92;;;1.50;99.90;;;;;;5047656;28;20123;-65
2023/11/26 14:18:44;;;;;;;2.72;2.13;;;1.50;99.90;;;;;;5049798;28;20037;-67
2023/11/26 14:21:12;;;;;;;2.33;2.13;;;1.50;99.90;;;;;;5049463;28;20033;-65
2023/11/26 14:23:39;;;;;;;1.80;1.52;;;1.50;99.90;;;;;;5055188;28;20122;-64
2023/11/26 14:26:06;;;;;;;2.30;2.00;;;1.50;99.90;;;;;;5049051;28;20047;-64
2023/11/26 14:28:33;;;;;;;5.22;2.42;;;1.50;99.90;;;;;;5051358;28;20048;-65
2023/11/26 14:31:01;;;;;;;2.17;1.92;;;1.50;99.90;;;;;;5053463;28;20098;-66
2023/11/26 14:33:29;;;;;;;3.85;2.40;;;1.40;99.90;;;;;;5052167;28;20445;-64
2023/11/26 14:35:57;;;;;;;3.42;2.08;;;1.40;99.90;;;;;;5048439;28;20040;-62
2023/11/26 14:38:23;;;;;;;1.75;1.45;;;1.50;99.90;;;;;;5036043;28;20483;-64
2023/11/26 14:40:51;;;;;;;3.92;2.58;;;1.50;99.90;;;;;;5049735;28;20098;-61
2023/11/26 14:43:18;;;;;;;2.58;1.85;;;1.50;99.90;;;;;;5048074;28;20527;-63
2023/11/26 14:45:45;;;;;;;2.20;2.00;;;1.50;99.90;;;;;;5050534;28;20826;-66
2023/11/26 14:48:12;;;;;;;1.42;1.27;;;1.50;99.90;;;;;;5051522;28;20088;-65
2023/11/26 14:50:39;;;;;;;3.50;2.00;;;1.50;99.90;;;;;;5028093;28;20448;-63
2023/11/26 14:53:06;;;;;;;1.98;1.67;;;1.50;99.90;;;;;;5051005;28;20076;-65
2023/11/26 14:55:33;;;;;;;4.65;2.70;;;1.50;99.90;;;;;;5050433;28;20048;-64
2023/11/26 14:58:01;;;;;;;2.15;1.80;;;1.50;99.90;;;;;;5051596;28;20045;-69